Maran Poseidon — SVAV3 — position and weather

sailwx.info

Track history (hours):
 
Tides and Currents Weather Stations Pressure Air Temp Water Temp Dewpoint Dewpoint Depression Visibility Wind Speed Wind Dir Waves Ship Positions

Maran Poseidon

Last reported at 2016-Aug-23 23:33 UTC. Time now 2016-Sep-01 03:39 UTC.
Position S 05°33' E 011°16'.
Warning: this ship's position is 8 days out of date.

Length 274 m; draft 15.3 m.

Type: Tanker. MMSI: 240959000.

Date/timePositionNaut miles runAvg speedWind from/ knotsBaromVisibWave heightAir tempDewpointWater temp
2016-Aug-23 23:33S 05°33' E 011°16'1313.2
2016-Aug-23 22:33S 05°33' E 011°29'1312.9
2016-Aug-23 21:33S 05°31' E 011°42'1311.8
2016-Aug-23 20:26S 05°31' E 011°55'6 1.4
2016-Aug-23 16:22S 05°32' E 012°00'25 0.7
2016-Aug-22 03:23S 05°32' E 011°36'1012.2
2016-Aug-22 02:32S 05°33' E 011°25'1111.8
2016-Aug-22 01:33S 05°33' E 011°14'1212.0
2016-Aug-22 00:33S 05°33' E 011°02'1312.3
2016-Aug-21 23:31S 05°33' E 010°49'1212.3
2016-Aug-21 22:33S 05°33' E 010°37'  
Track history (hours):
 
Tides and Currents Weather Stations Pressure Air Temp Water Temp Dewpoint Dewpoint Depression Visibility Wind Speed Wind Dir Waves Ship Positions

Maran Poseidon

Last reported at 2016-Aug-23 23:33 UTC. Time now 2016-Sep-01 03:39 UTC.
Position S 05°33' E 011°16'.
Warning: this ship's position is 8 days out of date.

Length 274 m; draft 15.3 m.

Type: Tanker. MMSI: 240959000.

Date/timePositionNaut miles runAvg speedWind from/ knotsBaromVisibWave heightAir tempDewpointWater temp
2016-Aug-23 23:33S 05°33' E 011°16'1313.2
2016-Aug-23 22:33S 05°33' E 011°29'1312.9
2016-Aug-23 21:33S 05°31' E 011°42'1311.8
2016-Aug-23 20:26S 05°31' E 011°55'6 1.4
2016-Aug-23 16:22S 05°32' E 012°00'25 0.7
2016-Aug-22 03:23S 05°32' E 011°36'1012.2
2016-Aug-22 02:32S 05°33' E 011°25'1111.8
2016-Aug-22 01:33S 05°33' E 011°14'1212.0
2016-Aug-22 00:33S 05°33' E 011°02'1312.3
2016-Aug-21 23:31S 05°33' E 010°49'1212.3
2016-Aug-21 22:33S 05°33' E 010°37'  

Dump ship's entire track history